sensor_id;sensor_type;location;lat;lon;timestamp;P1;durP1;ratioP1;P2;durP2;ratioP2
10896;SDS011;5501;51.176;6.470;2023-03-03T00:01:04;34.47;;;16.00;;
10896;SDS011;5501;51.176;6.470;2023-03-03T00:06:08;39.70;;;18.60;;
10896;SDS011;5501;51.176;6.470;2023-03-03T00:11:11;43.22;;;18.08;;
10896;SDS011;5501;51.176;6.470;2023-03-03T00:21:24;44.22;;;19.33;;
10896;SDS011;5501;51.176;6.470;2023-03-03T00:26:36;49.58;;;18.52;;
10896;SDS011;5501;51.176;6.470;2023-03-03T00:31:39;43.72;;;21.17;;
10896;SDS011;5501;51.176;6.470;2023-03-03T00:36:40;43.20;;;21.45;;
10896;SDS011;5501;51.176;6.470;2023-03-03T00:41:42;55.85;;;24.00;;
10896;SDS011;5501;51.176;6.470;2023-03-03T00:46:44;50.10;;;21.75;;
10896;SDS011;5501;51.176;6.470;2023-03-03T00:51:45;63.05;;;24.50;;
10896;SDS011;5501;51.176;6.470;2023-03-03T00:56:46;56.47;;;25.90;;
10896;SDS011;5501;51.176;6.470;2023-03-03T01:01:48;65.50;;;26.92;;
10896;SDS011;5501;51.176;6.470;2023-03-03T01:06:50;64.45;;;29.00;;
10896;SDS011;5501;51.176;6.470;2023-03-03T01:11:51;72.30;;;28.08;;
10896;SDS011;5501;51.176;6.470;2023-03-03T01:16:53;64.20;;;28.20;;
10896;SDS011;5501;51.176;6.470;2023-03-03T01:21:55;76.03;;;30.27;;
10896;SDS011;5501;51.176;6.470;2023-03-03T01:26:56;72.25;;;29.20;;
10896;SDS011;5501;51.176;6.470;2023-03-03T01:31:57;66.38;;;29.05;;
10896;SDS011;5501;51.176;6.470;2023-03-03T01:36:59;68.40;;;29.25;;
10896;SDS011;5501;51.176;6.470;2023-03-03T01:42:01;80.00;;;32.13;;
10896;SDS011;5501;51.176;6.470;2023-03-03T01:47:05;80.90;;;32.00;;
10896;SDS011;5501;51.176;6.470;2023-03-03T01:52:23;76.65;;;31.83;;
10896;SDS011;5501;51.176;6.470;2023-03-03T01:57:34;70.38;;;29.50;;
10896;SDS011;5501;51.176;6.470;2023-03-03T02:02:40;74.97;;;29.85;;
10896;SDS011;5501;51.176;6.470;2023-03-03T02:07:43;75.25;;;30.25;;
10896;SDS011;5501;51.176;6.470;2023-03-03T02:12:52;70.68;;;30.13;;
10896;SDS011;5501;51.176;6.470;2023-03-03T02:17:56;71.13;;;31.95;;
10896;SDS011;5501;51.176;6.470;2023-03-03T02:23:07;74.03;;;29.80;;
10896;SDS011;5501;51.176;6.470;2023-03-03T02:28:16;74.65;;;30.45;;
10896;SDS011;5501;51.176;6.470;2023-03-03T02:33:17;86.93;;;33.08;;
10896;SDS011;5501;51.176;6.470;2023-03-03T02:38:30;69.40;;;31.10;;
10896;SDS011;5501;51.176;6.470;2023-03-03T02:43:47;76.38;;;30.15;;
10896;SDS011;5501;51.176;6.470;2023-03-03T02:48:57;71.72;;;29.33;;
10896;SDS011;5501;51.176;6.470;2023-03-03T02:53:59;69.00;;;29.40;;
10896;SDS011;5501;51.176;6.470;2023-03-03T02:59:03;69.30;;;27.35;;
10896;SDS011;5501;51.176;6.470;2023-03-03T03:04:11;64.68;;;30.45;;
10896;SDS011;5501;51.176;6.470;2023-03-03T03:09:17;66.90;;;28.05;;
10896;SDS011;5501;51.176;6.470;2023-03-03T03:14:22;61.05;;;27.88;;
10896;SDS011;5501;51.176;6.470;2023-03-03T03:19:25;65.93;;;27.23;;
10896;SDS011;5501;51.176;6.470;2023-03-03T03:24:26;53.55;;;25.38;;
10896;SDS011;5501;51.176;6.470;2023-03-03T03:29:33;73.43;;;27.65;;
10896;SDS011;5501;51.176;6.470;2023-03-03T03:34:34;71.75;;;28.50;;
10896;SDS011;5501;51.176;6.470;2023-03-03T03:39:37;73.65;;;27.90;;
10896;SDS011;5501;51.176;6.470;2023-03-03T03:44:39;63.95;;;27.52;;
10896;SDS011;5501;51.176;6.470;2023-03-03T03:49:41;68.75;;;27.77;;
10896;SDS011;5501;51.176;6.470;2023-03-03T03:54:43;60.20;;;23.90;;
10896;SDS011;5501;51.176;6.470;2023-03-03T03:59:44;66.32;;;25.90;;
10896;SDS011;5501;51.176;6.470;2023-03-03T04:04:46;66.70;;;27.45;;
10896;SDS011;5501;51.176;6.470;2023-03-03T04:09:47;68.78;;;27.35;;
10896;SDS011;5501;51.176;6.470;2023-03-03T04:14:49;64.28;;;27.52;;
10896;SDS011;5501;51.176;6.470;2023-03-03T04:19:52;66.32;;;28.10;;
10896;SDS011;5501;51.176;6.470;2023-03-03T04:24:54;60.30;;;25.88;;
10896;SDS011;5501;51.176;6.470;2023-03-03T04:29:55;72.03;;;26.40;;
10896;SDS011;5501;51.176;6.470;2023-03-03T04:34:57;75.10;;;28.63;;
10896;SDS011;5501;51.176;6.470;2023-03-03T04:40:10;60.88;;;24.92;;
10896;SDS011;5501;51.176;6.470;2023-03-03T04:45:13;62.65;;;28.50;;
10896;SDS011;5501;51.176;6.470;2023-03-03T04:50:15;66.88;;;28.33;;
10896;SDS011;5501;51.176;6.470;2023-03-03T04:55:17;68.30;;;28.45;;
10896;SDS011;5501;51.176;6.470;2023-03-03T05:00:21;65.18;;;27.02;;
10896;SDS011;5501;51.176;6.470;2023-03-03T05:05:22;67.28;;;26.73;;
10896;SDS011;5501;51.176;6.470;2023-03-03T05:10:24;63.03;;;29.98;;
10896;SDS011;5501;51.176;6.470;2023-03-03T05:15:25;77.60;;;28.70;;
10896;SDS011;5501;51.176;6.470;2023-03-03T05:20:27;60.50;;;25.52;;
10896;SDS011;5501;51.176;6.470;2023-03-03T05:25:28;71.00;;;28.63;;
10896;SDS011;5501;51.176;6.470;2023-03-03T05:30:30;58.28;;;26.70;;
10896;SDS011;5501;51.176;6.470;2023-03-03T05:35:32;69.57;;;29.10;;
10896;SDS011;5501;51.176;6.470;2023-03-03T05:40:33;72.30;;;24.80;;
10896;SDS011;5501;51.176;6.470;2023-03-03T05:45:35;61.22;;;27.92;;
10896;SDS011;5501;51.176;6.470;2023-03-03T05:50:36;60.17;;;26.83;;
10896;SDS011;5501;51.176;6.470;2023-03-03T05:55:39;63.88;;;28.02;;
10896;SDS011;5501;51.176;6.470;2023-03-03T06:00:40;64.65;;;27.67;;
10896;SDS011;5501;51.176;6.470;2023-03-03T06:05:42;68.18;;;26.65;;
10896;SDS011;5501;51.176;6.470;2023-03-03T06:10:44;55.55;;;24.88;;
10896;SDS011;5501;51.176;6.470;2023-03-03T06:15:47;67.20;;;26.33;;
10896;SDS011;5501;51.176;6.470;2023-03-03T06:20:50;62.22;;;25.17;;
10896;SDS011;5501;51.176;6.470;2023-03-03T06:25:52;59.13;;;25.83;;
10896;SDS011;5501;51.176;6.470;2023-03-03T06:30:54;54.47;;;25.08;;
10896;SDS011;5501;51.176;6.470;2023-03-03T06:35:56;56.83;;;24.10;;
10896;SDS011;5501;51.176;6.470;2023-03-03T06:40:57;65.22;;;27.13;;
10896;SDS011;5501;51.176;6.470;2023-03-03T06:46:02;67.88;;;27.52;;
10896;SDS011;5501;51.176;6.470;2023-03-03T06:51:09;68.07;;;27.10;;
10896;SDS011;5501;51.176;6.470;2023-03-03T06:56:23;65.38;;;28.00;;
10896;SDS011;5501;51.176;6.470;2023-03-03T07:01:26;66.47;;;27.77;;
10896;SDS011;5501;51.176;6.470;2023-03-03T07:06:31;69.78;;;26.08;;
10896;SDS011;5501;51.176;6.470;2023-03-03T07:11:32;64.40;;;26.73;;
10896;SDS011;5501;51.176;6.470;2023-03-03T07:16:34;56.05;;;27.25;;
10896;SDS011;5501;51.176;6.470;2023-03-03T07:21:36;70.32;;;28.00;;
10896;SDS011;5501;51.176;6.470;2023-03-03T07:26:38;61.05;;;27.50;;
10896;SDS011;5501;51.176;6.470;2023-03-03T07:31:40;70.68;;;28.48;;
10896;SDS011;5501;51.176;6.470;2023-03-03T07:36:45;60.38;;;25.05;;
10896;SDS011;5501;51.176;6.470;2023-03-03T07:41:48;64.80;;;25.25;;
10896;SDS011;5501;51.176;6.470;2023-03-03T07:46:51;62.08;;;24.85;;
10896;SDS011;5501;51.176;6.470;2023-03-03T07:51:54;73.43;;;28.02;;
10896;SDS011;5501;51.176;6.470;2023-03-03T08:02:19;72.68;;;28.73;;
10896;SDS011;5501;51.176;6.470;2023-03-03T08:07:31;76.25;;;27.98;;
10896;SDS011;5501;51.176;6.470;2023-03-03T08:12:39;71.00;;;28.30;;
10896;SDS011;5501;51.176;6.470;2023-03-03T08:17:42;58.83;;;23.80;;
10896;SDS011;5501;51.176;6.470;2023-03-03T08:22:45;69.03;;;28.13;;
10896;SDS011;5501;51.176;6.470;2023-03-03T08:27:47;68.35;;;27.83;;
10896;SDS011;5501;51.176;6.470;2023-03-03T08:32:48;67.50;;;26.65;;
10896;SDS011;5501;51.176;6.470;2023-03-03T08:37:50;60.45;;;24.88;;
10896;SDS011;5501;51.176;6.470;2023-03-03T08:42:52;73.20;;;27.80;;
10896;SDS011;5501;51.176;6.470;2023-03-03T08:47:54;71.43;;;30.88;;
10896;SDS011;5501;51.176;6.470;2023-03-03T08:52:56;78.43;;;30.95;;
10896;SDS011;5501;51.176;6.470;2023-03-03T08:57:58;75.22;;;29.58;;
10896;SDS011;5501;51.176;6.470;2023-03-03T09:02:59;73.38;;;27.73;;
10896;SDS011;5501;51.176;6.470;2023-03-03T09:08:01;66.07;;;28.48;;
10896;SDS011;5501;51.176;6.470;2023-03-03T09:13:07;71.15;;;30.08;;
10896;SDS011;5501;51.176;6.470;2023-03-03T09:18:18;70.15;;;30.83;;
10896;SDS011;5501;51.176;6.470;2023-03-03T09:23:41;68.47;;;28.17;;
10896;SDS011;5501;51.176;6.470;2023-03-03T09:28:47;87.27;;;32.67;;
10896;SDS011;5501;51.176;6.470;2023-03-03T09:33:49;76.03;;;30.95;;
10896;SDS011;5501;51.176;6.470;2023-03-03T09:38:52;70.03;;;28.92;;
10896;SDS011;5501;51.176;6.470;2023-03-03T09:54:45;64.55;;;27.10;;
10896;SDS011;5501;51.176;6.470;2023-03-03T10:00:18;68.20;;;29.80;;
10896;SDS011;5501;51.176;6.470;2023-03-03T10:33:08;70.40;;;30.95;;
10896;SDS011;5501;51.176;6.470;2023-03-03T10:38:30;71.03;;;30.90;;
10896;SDS011;5501;51.176;6.470;2023-03-03T10:49:41;74.45;;;28.88;;
10896;SDS011;5501;51.176;6.470;2023-03-03T11:00:22;63.03;;;29.17;;
10896;SDS011;5501;51.176;6.470;2023-03-03T11:05:50;69.85;;;30.02;;
10896;SDS011;5501;51.176;6.470;2023-03-03T11:16:51;65.07;;;28.45;;
10896;SDS011;5501;51.176;6.470;2023-03-03T11:32:48;74.18;;;29.20;;
10896;SDS011;5501;51.176;6.470;2023-03-03T11:38:23;68.55;;;28.50;;
10896;SDS011;5501;51.176;6.470;2023-03-03T11:43:39;73.18;;;31.23;;
10896;SDS011;5501;51.176;6.470;2023-03-03T12:04:46;67.18;;;28.00;;
10896;SDS011;5501;51.176;6.470;2023-03-03T12:09:56;77.13;;;31.30;;
10896;SDS011;5501;51.176;6.470;2023-03-03T12:15:03;72.55;;;29.42;;
10896;SDS011;5501;51.176;6.470;2023-03-03T12:25:41;65.22;;;27.92;;
10896;SDS011;5501;51.176;6.470;2023-03-03T12:41:51;78.72;;;29.92;;
10896;SDS011;5501;51.176;6.470;2023-03-03T12:47:08;69.72;;;29.15;;
10896;SDS011;5501;51.176;6.470;2023-03-03T12:57:32;74.85;;;32.38;;
10896;SDS011;5501;51.176;6.470;2023-03-03T13:08:19;58.28;;;26.55;;
10896;SDS011;5501;51.176;6.470;2023-03-03T13:13:26;74.85;;;28.67;;
10896;SDS011;5501;51.176;6.470;2023-03-03T13:18:59;63.35;;;29.20;;
10896;SDS011;5501;51.176;6.470;2023-03-03T13:45:02;57.60;;;26.88;;
10896;SDS011;5501;51.176;6.470;2023-03-03T13:50:21;56.22;;;26.40;;
10896;SDS011;5501;51.176;6.470;2023-03-03T14:00:39;57.83;;;27.27;;
10896;SDS011;5501;51.176;6.470;2023-03-03T14:06:01;56.97;;;26.13;;
10896;SDS011;5501;51.176;6.470;2023-03-03T14:11:06;63.92;;;28.05;;
10896;SDS011;5501;51.176;6.470;2023-03-03T14:21:55;57.45;;;26.00;;
10896;SDS011;5501;51.176;6.470;2023-03-03T14:27:14;54.30;;;24.23;;
10896;SDS011;5501;51.176;6.470;2023-03-03T14:32:25;49.33;;;24.40;;
10896;SDS011;5501;51.176;6.470;2023-03-03T14:37:45;57.28;;;26.58;;
10896;SDS011;5501;51.176;6.470;2023-03-03T14:47:51;56.60;;;25.45;;
10896;SDS011;5501;51.176;6.470;2023-03-03T15:03:34;57.67;;;25.42;;
10896;SDS011;5501;51.176;6.470;2023-03-03T15:08:39;61.60;;;24.63;;
10896;SDS011;5501;51.176;6.470;2023-03-03T15:13:42;52.10;;;24.45;;
10896;SDS011;5501;51.176;6.470;2023-03-03T15:19:21;49.50;;;24.48;;
10896;SDS011;5501;51.176;6.470;2023-03-03T15:30:08;43.72;;;22.95;;
10896;SDS011;5501;51.176;6.470;2023-03-03T15:35:32;43.28;;;19.48;;
10896;SDS011;5501;51.176;6.470;2023-03-03T15:56:58;33.72;;;17.13;;
10896;SDS011;5501;51.176;6.470;2023-03-03T16:02:18;32.58;;;15.60;;
10896;SDS011;5501;51.176;6.470;2023-03-03T16:07:30;31.42;;;14.77;;
10896;SDS011;5501;51.176;6.470;2023-03-03T16:18:17;23.85;;;11.38;;
10896;SDS011;5501;51.176;6.470;2023-03-03T16:23:51;26.67;;;11.50;;
10896;SDS011;5501;51.176;6.470;2023-03-03T16:29:08;22.48;;;10.60;;
10896;SDS011;5501;51.176;6.470;2023-03-03T16:34:15;20.55;;;9.93;;
10896;SDS011;5501;51.176;6.470;2023-03-03T16:44:45;23.15;;;9.70;;
10896;SDS011;5501;51.176;6.470;2023-03-03T16:55:44;18.90;;;7.68;;
10896;SDS011;5501;51.176;6.470;2023-03-03T17:01:11;20.38;;;9.38;;
10896;SDS011;5501;51.176;6.470;2023-03-03T17:06:22;22.73;;;8.50;;
10896;SDS011;5501;51.176;6.470;2023-03-03T17:11:41;19.50;;;8.68;;
10896;SDS011;5501;51.176;6.470;2023-03-03T17:16:53;19.10;;;8.13;;
10896;SDS011;5501;51.176;6.470;2023-03-03T17:22:02;16.23;;;7.38;;
10896;SDS011;5501;51.176;6.470;2023-03-03T17:27:38;22.65;;;8.32;;
10896;SDS011;5501;51.176;6.470;2023-03-03T17:32:52;20.17;;;9.05;;
10896;SDS011;5501;51.176;6.470;2023-03-03T17:48:46;20.58;;;9.15;;
10896;SDS011;5501;51.176;6.470;2023-03-03T18:21:20;17.42;;;8.95;;
10896;SDS011;5501;51.176;6.470;2023-03-03T18:26:31;19.35;;;8.65;;
10896;SDS011;5501;51.176;6.470;2023-03-03T18:47:08;18.55;;;8.90;;
10896;SDS011;5501;51.176;6.470;2023-03-03T18:52:18;24.27;;;11.10;;
10896;SDS011;5501;51.176;6.470;2023-03-03T18:57:26;22.05;;;10.10;;
10896;SDS011;5501;51.176;6.470;2023-03-03T19:02:28;25.58;;;9.48;;
10896;SDS011;5501;51.176;6.470;2023-03-03T19:12:47;23.88;;;11.10;;
10896;SDS011;5501;51.176;6.470;2023-03-03T19:23:23;27.67;;;12.05;;
10896;SDS011;5501;51.176;6.470;2023-03-03T19:28:41;35.55;;;13.30;;
10896;SDS011;5501;51.176;6.470;2023-03-03T19:33:54;22.55;;;10.82;;
10896;SDS011;5501;51.176;6.470;2023-03-03T19:49:46;18.15;;;9.10;;
10896;SDS011;5501;51.176;6.470;2023-03-03T20:00:20;27.52;;;11.40;;
10896;SDS011;5501;51.176;6.470;2023-03-03T20:31:57;20.20;;;10.30;;
10896;SDS011;5501;51.176;6.470;2023-03-03T20:57:52;24.25;;;9.95;;
10896;SDS011;5501;51.176;6.470;2023-03-03T21:08:45;37.28;;;11.90;;
10896;SDS011;5501;51.176;6.470;2023-03-03T21:13:53;22.73;;;10.80;;
10896;SDS011;5501;51.176;6.470;2023-03-03T21:18:56;26.58;;;11.50;;
10896;SDS011;5501;51.176;6.470;2023-03-03T21:23:59;26.88;;;12.63;;
10896;SDS011;5501;51.176;6.470;2023-03-03T21:29:00;24.45;;;12.38;;
10896;SDS011;5501;51.176;6.470;2023-03-03T21:34:15;25.48;;;12.52;;
10896;SDS011;5501;51.176;6.470;2023-03-03T21:39:26;27.20;;;11.90;;
10896;SDS011;5501;51.176;6.470;2023-03-03T21:49:47;24.30;;;12.05;;
10896;SDS011;5501;51.176;6.470;2023-03-03T21:54:50;23.35;;;11.43;;
10896;SDS011;5501;51.176;6.470;2023-03-03T21:59:52;24.00;;;11.05;;
10896;SDS011;5501;51.176;6.470;2023-03-03T22:04:54;26.98;;;11.30;;
10896;SDS011;5501;51.176;6.470;2023-03-03T22:09:55;25.15;;;10.95;;
10896;SDS011;5501;51.176;6.470;2023-03-03T22:14:57;20.88;;;9.60;;
10896;SDS011;5501;51.176;6.470;2023-03-03T22:19:58;18.17;;;10.20;;
10896;SDS011;5501;51.176;6.470;2023-03-03T22:24:59;22.50;;;9.82;;
10896;SDS011;5501;51.176;6.470;2023-03-03T22:30:01;21.80;;;10.88;;
10896;SDS011;5501;51.176;6.470;2023-03-03T22:35:03;25.02;;;10.20;;
10896;SDS011;5501;51.176;6.470;2023-03-03T22:40:05;23.45;;;10.50;;
10896;SDS011;5501;51.176;6.470;2023-03-03T22:45:07;26.75;;;10.80;;
10896;SDS011;5501;51.176;6.470;2023-03-03T22:50:10;26.02;;;11.38;;
10896;SDS011;5501;51.176;6.470;2023-03-03T22:55:12;18.70;;;9.00;;
10896;SDS011;5501;51.176;6.470;2023-03-03T23:00:14;22.67;;;10.02;;
10896;SDS011;5501;51.176;6.470;2023-03-03T23:05:16;19.80;;;8.77;;
10896;SDS011;5501;51.176;6.470;2023-03-03T23:10:18;20.88;;;9.63;;
10896;SDS011;5501;51.176;6.470;2023-03-03T23:15:19;19.35;;;8.88;;
10896;SDS011;5501;51.176;6.470;2023-03-03T23:20:24;20.63;;;7.88;;
10896;SDS011;5501;51.176;6.470;2023-03-03T23:25:28;13.38;;;7.45;;
10896;SDS011;5501;51.176;6.470;2023-03-03T23:30:30;18.17;;;6.65;;
10896;SDS011;5501;51.176;6.470;2023-03-03T23:35:31;14.65;;;6.05;;
10896;SDS011;5501;51.176;6.470;2023-03-03T23:40:33;11.68;;;5.22;;
10896;SDS011;5501;51.176;6.470;2023-03-03T23:45:34;10.02;;;4.60;;
10896;SDS011;5501;51.176;6.470;2023-03-03T23:50:36;10.60;;;4.20;;
10896;SDS011;5501;51.176;6.470;2023-03-03T23:55:38;10.77;;;2.92;;
